Time;durP1;ratioP1;P1;durP2;ratioP2;P2;SDS_P1;SDS_P2;PMS_P1;PMS_P2;Temp;Humidity;BMP_temperature;BMP_pressure;BME280_temperature;BME280_humidity;BME280_pressure;Samples;Min_cycle;Max_cycle;Signal;HPM_P1;HPM_P2
2022/03/11 00:00:02;;;;;;;;;;;7.70;61.80;;;;;;6042356;23;19942;-93
2022/03/11 00:02:39;;;;;;;;;;;7.70;61.70;;;;;;6050371;23;19924;-91
2022/03/11 00:05:43;;;;;;;;;;;;;;;;;;;;;
2022/03/11 00:15:09;;;;;;;;;;;;;;;;;;;;;
2022/03/11 00:21:11;;;;;;;;;;;7.50;62.30;;;;;;5943216;24;20219;-91
2022/03/11 00:30:26;;;;;;;;;;;;;;;;;;;;;
2022/03/11 00:36:45;;;;;;;;;;;;;;;;;;;;;
2022/03/11 00:40:16;;;;;;;;;;;7.30;63.10;;;;;;5873236;24;20423;-92
2022/03/11 00:42:50;;;;;;;;;;;7.30;63.10;;;;;;5918542;23;19922;-94
2022/03/11 00:51:41;;;;;;;;;;;7.20;63.40;;;;;;5984461;24;20336;-92
2022/03/11 01:00:47;;;;;;;;;;;7.10;64.30;;;;;;5959745;24;19915;-93
2022/03/11 01:03:58;;;;;;;;;;;;;;;;;;;;;
2022/03/11 01:06:58;;;;;;;;;;;7.10;64.00;;;;;;5977923;24;19993;-91
2022/03/11 01:09:55;;;;;;;;;;;;;;;;;;;;;
2022/03/11 01:15:25;;;;;;;;;;;7.00;64.20;;;;;;6082877;23;19909;-91
2022/03/11 01:21:25;;;;;;;;;;;;;;;;;;;;;
2022/03/11 01:24:27;;;;;;;;;;;;;;;;;;;;;
2022/03/11 01:30:26;;;;;;;;;;;;;;;;;;;;;
2022/03/11 01:39:22;;;;;;;;;;;;;;;;;;;;;
2022/03/11 01:42:19;;;;;;;;;;;;;;;;;;;;;
2022/03/11 01:45:05;;;;;;;;;;;;;;;;;;;;;
2022/03/11 01:57:10;;;;;;;;;;;6.70;65.90;;;;;;6040933;23;19912;-91
2022/03/11 02:03:35;;;;;;;;;;;;;;;;;;;;;
2022/03/11 02:12:59;;;;;;;;;;;;;;;;;;;;;
2022/03/11 02:18:47;;;;;;;;;;;6.60;66.50;;;;;;6017196;23;19917;-90
2022/03/11 02:21:29;;;;;;;;;;;;;;;;;;;;;
2022/03/11 02:30:44;;;;;;;;;;;;;;;;;;;;;
2022/03/11 02:33:40;;;;;;;;;;;6.50;67.00;;;;;;5984384;23;20317;-92
2022/03/11 02:36:27;;;;;;;;;;;6.50;67.10;;;;;;6067793;23;19987;-92
2022/03/11 02:39:49;;;;;;;;;;;;;;;;;;;;;
2022/03/11 02:42:26;;;;;;;;;;;6.40;67.20;;;;;;6055615;23;20452;-95
2022/03/11 02:49:13;;;;;;;;;;;;;;;;;;;;;
2022/03/11 03:25:30;;;;;;;;;;;;;;;;;;;;;
2022/03/11 03:31:23;;;;;;;;;;;;;;;;;;;;;
2022/03/11 03:34:18;;;;;;;;;;;5.90;69.20;;;;;;6007469;23;19989;-92
2022/03/11 03:40:37;;;;;;;;;;;;;;;;;;;;;
2022/03/11 03:46:12;;;;;;;;;;;5.70;70.10;;;;;;6064095;23;19993;-93
2022/03/11 03:55:11;;;;;;;;;;;;;;;;;;;;;
2022/03/11 03:58:30;;;;;;;;;;;5.70;70.40;;;;;;6159372;23;19979;-91
2022/03/11 04:01:35;;;;;;;;;;;5.70;70.60;;;;;;5988289;23;19937;-91
2022/03/11 04:16:38;;;;;;;;;;;5.50;71.30;;;;;;6011641;23;19910;-91
2022/03/11 04:22:59;;;;;;;;;;;5.50;71.40;;;;;;6056699;23;19909;-91
2022/03/11 04:32:11;;;;;;;;;;;;;;;;;;;;;
2022/03/11 04:38:23;;;;;;;;;;;5.50;71.80;;;;;;6159126;23;19909;-91
2022/03/11 04:41:01;;;;;;;;;;;;;;;;;;;;;
2022/03/11 04:47:05;;;;;;;;;;;5.50;71.80;;;;;;6131563;23;19908;-91
2022/03/11 04:50:24;;;;;;;;;;;;;;;;;;;;;
2022/03/11 04:55:56;;;;;;;;;;;;;;;;;;;;;
2022/03/11 04:58:42;;;;;;;;;;;5.40;72.20;;;;;;6158951;23;19987;-91
2022/03/11 05:01:22;;;;;;;;;;;5.40;72.10;;;;;;6158213;23;19925;-93
2022/03/11 05:04:14;;;;;;;;;;;5.40;72.20;;;;;;6133295;23;19919;-91
2022/03/11 05:16:26;;;;;;;;;;;5.50;72.40;;;;;;6139867;23;20231;-93
2022/03/11 05:25:23;;;;;;;;;;;5.50;72.90;;;;;;6020427;23;20351;-93
2022/03/11 05:28:46;;;;;;;;;;;;;;;;;;;;;
2022/03/11 05:34:38;;;;;;;;;;;;;;;;;;;;;
2022/03/11 06:05:39;;;;;;;;;;;;;;;;;;;;;
2022/03/11 06:09:08;;;;;;;;;;;;;;;;;;;;;
2022/03/11 06:11:53;;;;;;;;;;;;;;;;;;;;;
2022/03/11 06:34:54;;;;;;;;;;;;;;;;;;;;;
2022/03/11 06:37:37;;;;;;;;;;;5.40;74.20;;;;;;5896657;24;19911;-90
2022/03/11 06:46:52;;;;;;;;;;;;;;;;;;;;;
2022/03/11 06:55:47;;;;;;;;;;;;;;;;;;;;;
2022/03/11 07:04:57;;;;;;;;;;;5.60;73.80;;;;;;6000380;23;19958;-89
2022/03/11 07:10:43;;;;;;;;;;;5.70;73.80;;;;;;6077293;23;19910;-89
2022/03/11 07:22:43;;;;;;;;;;;5.80;73.60;;;;;;6168213;23;19912;-90
2022/03/11 07:25:30;;;;;;;;;;;;;;;;;;;;;
2022/03/11 07:28:19;;;;;;;;;;;5.90;73.60;;;;;;6187877;23;19983;-89
2022/03/11 07:31:24;;;;;;;;;;;;;;;;;;;;;
2022/03/11 07:40:38;;;;;;;;;;;;;;;;;;;;;
2022/03/11 07:43:41;;;;;;;;;;;6.20;72.90;;;;;;6280881;22;20289;-89
2022/03/11 07:46:40;;;;;;;;;;;;;;;;;;;;;
2022/03/11 07:55:51;;;;;;;;;;;;;;;;;;;;;
2022/03/11 08:01:52;;;;;;;;;;;;;;;;;;;;;
2022/03/11 08:19:38;;;;;;;;;;;7.00;71.00;;;;;;6157124;23;19997;-88
2022/03/11 08:22:45;;;;;;;;;;;7.10;70.90;;;;;;6185526;23;20230;-87
2022/03/11 08:25:33;;;;;;;;;;;7.20;70.60;;;;;;6270112;22;19914;-88
2022/03/11 08:28:32;;;;;;;;;;;;;;;;;;;;;
2022/03/11 08:46:04;;;;;;;;;;;7.70;69.60;;;;;;6284277;22;19899;-87
2022/03/11 08:48:45;;;;;;;;;;;7.70;69.60;;;;;;6279246;22;19891;-89
2022/03/11 08:54:33;;;;;;;;;;;;;;;;;;;;;
2022/03/11 09:06:43;;;;;;;;;;;;;;;;;;;;;
2022/03/11 09:09:39;;;;;;;;;;;;;;;;;;;;;
2022/03/11 09:18:55;;;;;;;;;;;8.40;67.40;;;;;;6155857;23;19911;-88
2022/03/11 09:21:33;;;;;;;;;;;;;;;;;;;;;
2022/03/11 09:24:33;;;;;;;;;;;8.50;67.10;;;;;;6279682;22;20278;-88
2022/03/11 09:30:46;;;;;;;;;;;;;;;;;;;;;
2022/03/11 09:42:47;;;;;;;;;;;;;;;;;;;;;
2022/03/11 09:52:07;;;;;;;;;;;;;;;;;;;;;
2022/03/11 09:57:49;;;;;;;;;;;;;;;;;;;;;
2022/03/11 10:00:39;;;;;;;;;;;9.30;65.80;;;;;;6247830;23;19966;-91
2022/03/11 10:07:08;;;;;;;;;;;9.40;66.20;;;;;;6248785;23;19991;-90
2022/03/11 10:13:12;;;;;;;;;;;;;;;;;;;;;
2022/03/11 10:21:34;;;;;;;;;;;9.70;64.40;;;;;;6249269;23;19919;-88
2022/03/11 10:24:06;;;;;;;;;;;9.80;64.30;;;;;;6224660;23;19904;-88
2022/03/11 10:30:02;;;;;;;;;;;9.90;64.60;;;;;;6233412;23;20318;-87
2022/03/11 10:32:57;;;;;;;;;;;10.00;64.50;;;;;;6222997;23;19903;-89
2022/03/11 10:36:02;;;;;;;;;;;;;;;;;;;;;
2022/03/11 10:38:38;;;;;;;;;;;10.10;64.70;;;;;;6244642;23;19983;-88
2022/03/11 10:41:12;;;;;;;;;;;10.20;64.70;;;;;;6199720;23;19920;-88
2022/03/11 10:47:28;;;;;;;;;;;10.30;64.80;;;;;;6194383;23;19912;-88
2022/03/11 10:50:16;;;;;;;;;;;10.30;64.80;;;;;;6249439;23;19990;-89
2022/03/11 10:52:50;;;;;;;;;;;10.40;64.20;;;;;;6242448;23;19978;-88
2022/03/11 10:56:10;;;;;;;;;;;;;;;;;;;;;
2022/03/11 10:59:00;;;;;;;;;;;10.60;64.20;;;;;;6239216;23;20344;-88
2022/03/11 11:02:00;;;;;;;;;;;10.60;64.00;;;;;;6246789;23;19916;-89
2022/03/11 11:07:58;;;;;;;;;;;10.70;63.80;;;;;;6237699;23;19910;-88
2022/03/11 11:10:51;;;;;;;;;;;10.80;63.40;;;;;;6241341;23;19957;-88
2022/03/11 11:13:29;;;;;;;;;;;10.80;63.50;;;;;;6223186;23;19911;-88
2022/03/11 11:16:23;;;;;;;;;;;10.90;63.70;;;;;;6249708;23;20409;-90
2022/03/11 11:18:55;;;;;;;;;;;10.90;63.10;;;;;;6220982;23;20307;-88
2022/03/11 11:21:26;;;;;;;;;;;11.00;63.30;;;;;;6217269;23;19956;-87
2022/03/11 11:27:25;;;;;;;;;;;11.10;63.40;;;;;;6219337;23;20314;-89
2022/03/11 11:30:19;;;;;;;;;;;11.10;63.60;;;;;;6218072;23;19907;-88
2022/03/11 11:32:55;;;;;;;;;;;;;;;;;;;;;
2022/03/11 11:36:02;;;;;;;;;;;11.30;62.80;;;;;;6219658;23;19983;-88
2022/03/11 11:41:39;;;;;;;;;;;11.40;62.50;;;;;;6187473;23;19995;-89
2022/03/11 11:47:39;;;;;;;;;;;;;;;;;;;;;
2022/03/11 11:50:48;;;;;;;;;;;11.50;63.30;;;;;;6213773;23;19907;-89
2022/03/11 11:53:43;;;;;;;;;;;;;;;;;;;;;
2022/03/11 11:56:45;;;;;;;;;;;11.60;62.80;;;;;;6189039;23;19908;-88
2022/03/11 11:59:46;;;;;;;;;;;;;;;;;;;;;
2022/03/11 12:05:47;;;;;;;;;;;11.80;62.60;;;;;;6203658;23;19982;-89
2022/03/11 12:08:48;;;;;;;;;;;11.90;62.30;;;;;;6193899;23;19908;-88
2022/03/11 12:11:34;;;;;;;;;;;12.00;61.50;;;;;;6218587;23;19911;-88
2022/03/11 12:14:36;;;;;;;;;;;;;;;;;;;;;
2022/03/11 12:17:16;;;;;;;;;;;12.00;61.80;;;;;;6218740;23;19982;-89
2022/03/11 12:20:03;;;;;;;;;;;;;;;;;;;;;
2022/03/11 12:26:05;;;;;;;;;;;12.20;61.40;;;;;;6085949;23;19906;-88
2022/03/11 12:28:56;;;;;;;;;;;12.20;61.10;;;;;;6192239;23;19911;-88
2022/03/11 12:31:42;;;;;;;;;;;12.30;60.90;;;;;;6192529;23;19904;-88
2022/03/11 12:37:49;;;;;;;;;;;12.30;61.40;;;;;;6141016;23;19904;-89
2022/03/11 12:40:37;;;;;;;;;;;12.50;61.70;;;;;;6216561;23;19952;-88
2022/03/11 12:43:24;;;;;;;;;;;;;;;;;;;;;
2022/03/11 12:46:26;;;;;;;;;;;;;;;;;;;;;
2022/03/11 12:49:10;;;;;;;;;;;12.60;61.00;;;;;;6219908;23;19935;-88
2022/03/11 12:51:57;;;;;;;;;;;12.70;61.50;;;;;;6192525;23;19958;-90
2022/03/11 12:57:48;;;;;;;;;;;12.80;60.00;;;;;;6170868;23;19911;-90
2022/03/11 13:00:36;;;;;;;;;;;;;;;;;;;;;
2022/03/11 13:03:25;;;;;;;;;;;;;;;;;;;;;
2022/03/11 13:06:07;;;;;;;;;;;12.90;61.20;;;;;;6224044;23;19949;-89
2022/03/11 13:08:55;;;;;;;;;;;;;;;;;;;;;
2022/03/11 13:14:56;;;;;;;;;;;13.00;60.40;;;;;;6172003;23;19931;-88
2022/03/11 13:17:55;;;;;;;;;;;13.10;60.60;;;;;;6181936;23;19950;-88
2022/03/11 13:21:03;;;;;;;;;;;;;;;;;;;;;
2022/03/11 13:26:55;;;;;;;;;;;13.20;59.90;;;;;;6148820;23;19936;-89
2022/03/11 13:29:28;;;;;;;;;;;13.20;60.30;;;;;;6118534;23;19916;-89
2022/03/11 13:32:09;;;;;;;;;;;;;;;;;;;;;
2022/03/11 13:35:05;;;;;;;;;;;;;;;;;;;;;
2022/03/11 13:41:12;;;;;;;;;;;;;;;;;;;;;
2022/03/11 13:47:27;;;;;;;;;;;13.50;59.70;;;;;;6171803;23;20375;-89
2022/03/11 13:50:14;;;;;;;;;;;13.50;59.40;;;;;;6217065;23;19931;-90
2022/03/11 13:56:05;;;;;;;;;;;;;;;;;;;;;
2022/03/11 14:01:58;;;;;;;;;;;;;;;;;;;;;
2022/03/11 14:07:40;;;;;;;;;;;13.80;60.30;;;;;;6127863;23;19909;-89
2022/03/11 14:10:34;;;;;;;;;;;;;;;;;;;;;
2022/03/11 14:19:26;;;;;;;;;;;13.90;60.00;;;;;;6204242;23;20222;-89
2022/03/11 14:21:57;;;;;;;;;;;13.90;60.00;;;;;;6199719;23;20237;-90
2022/03/11 14:27:52;;;;;;;;;;;13.90;59.80;;;;;;6250064;23;19911;-90
2022/03/11 14:30:38;;;;;;;;;;;14.00;59.70;;;;;;6214430;23;19978;-89
2022/03/11 14:33:32;;;;;;;;;;;;;;;;;;;;;
2022/03/11 14:36:08;;;;;;;;;;;14.00;59.20;;;;;;6239954;23;19904;-88
2022/03/11 14:38:59;;;;;;;;;;;14.00;59.10;;;;;;6258681;23;19928;-89
2022/03/11 14:41:34;;;;;;;;;;;14.00;59.30;;;;;;6251250;23;20318;-88
2022/03/11 14:44:08;;;;;;;;;;;14.00;59.30;;;;;;6206177;23;19926;-89
2022/03/11 14:47:13;;;;;;;;;;;;;;;;;;;;;
2022/03/11 14:49:46;;;;;;;;;;;14.00;59.10;;;;;;6245773;23;19990;-89
2022/03/11 14:55:45;;;;;;;;;;;14.10;59.10;;;;;;6229761;23;19931;-88
2022/03/11 14:58:28;;;;;;;;;;;;;;;;;;;;;
2022/03/11 15:01:13;;;;;;;;;;;;;;;;;;;;;
2022/03/11 15:03:51;;;;;;;;;;;;;;;;;;;;;
2022/03/11 15:06:53;;;;;;;;;;;;;;;;;;;;;
2022/03/11 15:09:44;;;;;;;;;;;14.10;58.50;;;;;;6262784;22;19906;-89
2022/03/11 15:12:51;;;;;;;;;;;14.10;58.10;;;;;;6242442;22;19928;-91
2022/03/11 15:18:13;;;;;;;;;;;14.10;58.40;;;;;;6253257;23;19908;-89
2022/03/11 15:21:09;;;;;;;;;;;14.10;58.30;;;;;;6220163;23;19896;-87
2022/03/11 15:24:07;;;;;;;;;;;14.10;58.40;;;;;;6218252;23;19978;-88
2022/03/11 15:27:03;;;;;;;;;;;;;;;;;;;;;
2022/03/11 15:29:58;;;;;;;;;;;14.10;58.70;;;;;;6213222;23;19947;-89
2022/03/11 15:32:52;;;;;;;;;;;;;;;;;;;;;
2022/03/11 15:35:46;;;;;;;;;;;;;;;;;;;;;
2022/03/11 15:38:15;;;;;;;;;;;14.10;58.60;;;;;;6217758;23;20276;-89
2022/03/11 15:44:08;;;;;;;;;;;;;;;;;;;;;
2022/03/11 15:47:01;;;;;;;;;;;14.20;58.20;;;;;;6219512;23;19982;-89
2022/03/11 15:49:39;;;;;;;;;;;;;;;;;;;;;
2022/03/11 15:52:33;;;;;;;;;;;;;;;;;;;;;
2022/03/11 15:56:03;;;;;;;;;;;;;;;;;;;;;
2022/03/11 16:01:49;;;;;;;;;;;14.10;57.40;;;;;;6190426;23;20242;-88
2022/03/11 16:04:20;;;;;;;;;;;14.10;57.40;;;;;;6216531;23;20503;-89
2022/03/11 16:19:13;;;;;;;;;;;;;;;;;;;;;
2022/03/11 16:22:08;;;;;;;;;;;13.70;56.90;;;;;;6226492;23;19999;-88
2022/03/11 16:27:50;;;;;;;;;;;;;;;;;;;;;
2022/03/11 16:33:44;;;;;;;;;;;13.40;57.50;;;;;;6249774;23;19919;-88
2022/03/11 16:40:01;;;;;;;;;;;13.30;57.70;;;;;;6156529;23;19905;-88
2022/03/11 16:45:58;;;;;;;;;;;;;;;;;;;;;
2022/03/11 16:51:31;;;;;;;;;;;;;;;;;;;;;
2022/03/11 17:16:30;;;;;;;;;;;;;;;;;;;;;
2022/03/11 17:22:04;;;;;;;;;;;;;;;;;;;;;
2022/03/11 17:24:50;;;;;;;;;;;12.40;58.10;;;;;;6004978;23;19974;-91
2022/03/11 17:27:44;;;;;;;;;;;12.40;58.00;;;;;;6047874;23;19973;-87
2022/03/11 17:30:20;;;;;;;;;;;12.30;58.10;;;;;;6102372;23;19905;-92
2022/03/11 17:33:24;;;;;;;;;;;;;;;;;;;;;
2022/03/11 17:38:56;;;;;;;;;;;12.10;57.70;;;;;;6128441;23;19905;-89
2022/03/11 17:41:45;;;;;;;;;;;12.10;57.70;;;;;;6100273;23;20501;-90
2022/03/11 17:44:52;;;;;;;;;;;;;;;;;;;;;
2022/03/11 17:48:05;;;;;;;;;;;;;;;;;;;;;
2022/03/11 17:53:59;;;;;;;;;;;12.00;57.80;;;;;;6140908;23;19907;-88
2022/03/11 17:56:27;;;;;;;;;;;11.90;57.20;;;;;;6220608;23;19903;-89
2022/03/11 17:59:19;;;;;;;;;;;;;;;;;;;;;
2022/03/11 18:05:19;;;;;;;;;;;11.80;57.40;;;;;;6227599;23;19930;-88
2022/03/11 18:11:21;;;;;;;;;;;;;;;;;;;;;
2022/03/11 18:14:12;;;;;;;;;;;;;;;;;;;;;
2022/03/11 18:26:10;;;;;;;;;;;11.60;57.90;;;;;;6096235;23;19909;-90
2022/03/11 18:28:50;;;;;;;;;;;11.60;57.80;;;;;;6116765;23;20415;-90
2022/03/11 18:31:21;;;;;;;;;;;11.50;57.90;;;;;;6177193;22;19931;-90
2022/03/11 18:34:30;;;;;;;;;;;;;;;;;;;;;
2022/03/11 18:47:11;;;;;;;;;;;11.40;57.60;;;;;;6193757;23;19911;-91
2022/03/11 18:49:53;;;;;;;;;;;11.40;57.70;;;;;;6191991;23;19908;-89
2022/03/11 18:56:08;;;;;;;;;;;;;;;;;;;;;
2022/03/11 19:01:49;;;;;;;;;;;;;;;;;;;;;
2022/03/11 19:04:26;;;;;;;;;;;11.30;57.90;;;;;;6232202;23;20412;-92
2022/03/11 19:07:22;;;;;;;;;;;;;;;;;;;;;
2022/03/11 19:10:04;;;;;;;;;;;;;;;;;;;;;
2022/03/11 19:12:51;;;;;;;;;;;11.20;57.90;;;;;;6255641;23;20322;-91
2022/03/11 19:15:27;;;;;;;;;;;11.20;58.00;;;;;;6213992;23;19904;-90
2022/03/11 19:18:04;;;;;;;;;;;11.20;57.70;;;;;;6229215;23;19904;-89
2022/03/11 19:21:01;;;;;;;;;;;;;;;;;;;;;
2022/03/11 19:26:43;;;;;;;;;;;11.10;57.80;;;;;;6193408;23;19908;-91
2022/03/11 19:29:14;;;;;;;;;;;11.10;57.70;;;;;;6224506;23;19904;-89
2022/03/11 19:31:58;;;;;;;;;;;11.10;57.70;;;;;;6224343;23;19904;-89
2022/03/11 19:34:48;;;;;;;;;;;11.10;57.80;;;;;;6224962;23;19904;-90
2022/03/11 19:37:35;;;;;;;;;;;11.10;57.70;;;;;;6224965;23;19904;-89
2022/03/11 19:40:44;;;;;;;;;;;;;;;;;;;;;
2022/03/11 19:43:20;;;;;;;;;;;;;;;;;;;;;
2022/03/11 19:45:56;;;;;;;;;;;;;;;;;;;;;
2022/03/11 19:48:45;;;;;;;;;;;;;;;;;;;;;
2022/03/11 19:51:20;;;;;;;;;;;11.00;58.00;;;;;;6234530;23;19904;-88
2022/03/11 19:53:53;;;;;;;;;;;11.00;58.00;;;;;;6227153;23;19908;-89
2022/03/11 19:56:27;;;;;;;;;;;11.00;57.90;;;;;;6225375;23;19983;-90
2022/03/11 19:59:16;;;;;;;;;;;;;;;;;;;;;
2022/03/11 20:01:42;;;;;;;;;;;11.00;57.60;;;;;;6225393;23;19939;-90
2022/03/11 20:04:14;;;;;;;;;;;10.90;57.70;;;;;;6225310;23;19931;-89
2022/03/11 20:07:16;;;;;;;;;;;;;;;;;;;;;
2022/03/11 20:13:29;;;;;;;;;;;;;;;;;;;;;
2022/03/11 20:16:01;;;;;;;;;;;10.80;57.30;;;;;;6225060;23;19918;-89
2022/03/11 20:18:45;;;;;;;;;;;10.80;57.30;;;;;;6228434;23;20303;-89
2022/03/11 20:21:26;;;;;;;;;;;;;;;;;;;;;
2022/03/11 20:24:04;;;;;;;;;;;;;;;;;;;;;
2022/03/11 20:29:25;;;;;;;;;;;10.70;57.30;;;;;;6208690;23;19910;-89
2022/03/11 20:32:02;;;;;;;;;;;10.70;57.30;;;;;;6229950;23;19904;-88
2022/03/11 20:34:33;;;;;;;;;;;10.70;57.40;;;;;;6228050;23;19904;-89
2022/03/11 20:37:11;;;;;;;;;;;10.70;57.40;;;;;;6228458;23;19904;-90
2022/03/11 20:39:49;;;;;;;;;;;10.70;57.30;;;;;;6254955;23;19904;-90
2022/03/11 20:42:17;;;;;;;;;;;10.70;57.30;;;;;;6229185;23;19919;-90
2022/03/11 20:45:23;;;;;;;;;;;10.60;57.30;;;;;;6228639;23;19904;-89
2022/03/11 20:47:50;;;;;;;;;;;10.60;57.20;;;;;;6254579;23;19904;-89
2022/03/11 20:50:37;;;;;;;;;;;;;;;;;;;;;
2022/03/11 20:53:06;;;;;;;;;;;10.60;56.90;;;;;;6254891;23;19927;-90
2022/03/11 20:55:35;;;;;;;;;;;10.60;56.90;;;;;;6228197;23;19904;-90
2022/03/11 20:58:05;;;;;;;;;;;10.60;57.10;;;;;;6228906;23;19910;-89
2022/03/11 21:00:47;;;;;;;;;;;;;;;;;;;;;
2022/03/11 21:03:18;;;;;;;;;;;10.50;57.00;;;;;;6255164;23;19947;-89
2022/03/11 21:05:48;;;;;;;;;;;10.50;57.10;;;;;;6228210;23;19910;-88
2022/03/11 21:08:18;;;;;;;;;;;10.50;56.30;;;;;;6228153;23;19912;-90
2022/03/11 21:11:18;;;;;;;;;;;10.50;56.60;;;;;;6229299;23;19903;-91
2022/03/11 21:13:53;;;;;;;;;;;10.50;56.60;;;;;;6202747;23;20380;-89
2022/03/11 21:16:21;;;;;;;;;;;10.50;56.60;;;;;;6228289;23;19910;-90
2022/03/11 21:18:59;;;;;;;;;;;10.40;56.50;;;;;;6255152;23;19903;-89
2022/03/11 21:21:36;;;;;;;;;;;10.40;56.60;;;;;;6228436;23;19991;-90
2022/03/11 21:24:09;;;;;;;;;;;10.40;56.20;;;;;;6199316;23;19920;-89
2022/03/11 21:26:56;;;;;;;;;;;10.40;56.40;;;;;;6221806;23;19908;-89
2022/03/11 21:29:29;;;;;;;;;;;10.40;56.40;;;;;;6217749;23;19986;-89
2022/03/11 21:32:07;;;;;;;;;;;10.40;56.20;;;;;;6192839;23;19912;-89
2022/03/11 21:35:04;;;;;;;;;;;10.40;56.30;;;;;;6217833;23;19932;-89
2022/03/11 21:37:49;;;;;;;;;;;;;;;;;;;;;
2022/03/11 21:40:35;;;;;;;;;;;10.40;56.20;;;;;;6218763;23;20243;-89
2022/03/11 21:43:31;;;;;;;;;;;;;;;;;;;;;
2022/03/11 21:46:09;;;;;;;;;;;;;;;;;;;;;
2022/03/11 21:48:38;;;;;;;;;;;10.40;55.80;;;;;;6244004;23;19908;-88
2022/03/11 21:51:14;;;;;;;;;;;;;;;;;;;;;
2022/03/11 21:53:43;;;;;;;;;;;10.40;56.00;;;;;;6224743;23;19931;-89
2022/03/11 21:56:32;;;;;;;;;;;10.40;55.90;;;;;;6193477;23;19991;-90
2022/03/11 21:59:09;;;;;;;;;;;;;;;;;;;;;
2022/03/11 22:01:39;;;;;;;;;;;10.30;55.90;;;;;;6218382;23;20404;-87
2022/03/11 22:04:22;;;;;;;;;;;10.30;55.80;;;;;;6217212;23;19943;-88
2022/03/11 22:06:51;;;;;;;;;;;10.30;55.80;;;;;;6217945;23;19912;-90
2022/03/11 22:09:27;;;;;;;;;;;10.30;55.80;;;;;;6192733;23;19954;-89
2022/03/11 22:11:56;;;;;;;;;;;10.30;55.70;;;;;;6217496;23;19927;-89
2022/03/11 22:14:32;;;;;;;;;;;10.20;55.30;;;;;;6217492;23;19991;-89
2022/03/11 22:17:00;;;;;;;;;;;10.20;55.00;;;;;;6193204;23;19912;-89
2022/03/11 22:19:28;;;;;;;;;;;10.20;55.30;;;;;;6217322;23;19915;-89
2022/03/11 22:22:05;;;;;;;;;;;;;;;;;;;;;
2022/03/11 22:24:52;;;;;;;;;;;;;;;;;;;;;
2022/03/11 22:27:21;;;;;;;;;;;10.10;55.10;;;;;;6228597;23;20381;-89
2022/03/11 22:29:57;;;;;;;;;;;10.10;54.70;;;;;;6224283;23;19910;-90
2022/03/11 22:35:52;;;;;;;;;;;10.10;54.50;;;;;;6251051;23;20318;-89
2022/03/11 22:38:25;;;;;;;;;;;10.00;54.50;;;;;;6224173;23;19904;-88
2022/03/11 22:40:56;;;;;;;;;;;10.00;54.40;;;;;;6222889;23;19904;-89
2022/03/11 22:43:27;;;;;;;;;;;10.00;54.50;;;;;;6199767;23;19916;-90
2022/03/11 22:46:00;;;;;;;;;;;10.00;54.30;;;;;;6225716;23;19903;-89
2022/03/11 22:49:07;;;;;;;;;;;10.00;54.50;;;;;;6199995;23;19911;-89
2022/03/11 22:51:59;;;;;;;;;;;10.00;54.60;;;;;;6251701;23;19911;-89
2022/03/11 22:54:36;;;;;;;;;;;9.90;54.30;;;;;;6225893;23;19904;-89
2022/03/11 22:57:25;;;;;;;;;;;9.90;54.60;;;;;;6202562;23;19907;-90
2022/03/11 23:03:13;;;;;;;;;;;9.90;54.60;;;;;;6256887;23;19935;-87
2022/03/11 23:05:40;;;;;;;;;;;9.90;54.50;;;;;;6247671;23;19923;-88
2022/03/11 23:10:51;;;;;;;;;;;9.90;54.70;;;;;;6272450;23;19915;-89
2022/03/11 23:13:29;;;;;;;;;;;9.90;54.80;;;;;;6237355;23;19903;-90
2022/03/11 23:16:04;;;;;;;;;;;9.90;54.80;;;;;;6226771;23;19904;-88
2022/03/11 23:18:40;;;;;;;;;;;9.80;54.70;;;;;;6242195;22;19927;-87
2022/03/11 23:21:19;;;;;;;;;;;;;;;;;;;;;
2022/03/11 23:23:46;;;;;;;;;;;9.80;54.60;;;;;;6251878;23;19910;-91
2022/03/11 23:26:22;;;;;;;;;;;9.80;54.70;;;;;;6249559;22;19896;-90
2022/03/11 23:29:00;;;;;;;;;;;;;;;;;;;;;
2022/03/11 23:31:29;;;;;;;;;;;9.80;54.90;;;;;;6226738;23;19983;-90
2022/03/11 23:34:08;;;;;;;;;;;9.80;54.80;;;;;;6225597;23;19903;-91
2022/03/11 23:36:37;;;;;;;;;;;9.80;54.70;;;;;;6201575;23;19952;-90
2022/03/11 23:39:15;;;;;;;;;;;9.80;54.70;;;;;;6224015;23;20314;-89
2022/03/11 23:42:05;;;;;;;;;;;9.80;54.50;;;;;;6223739;23;19907;-90
2022/03/11 23:44:36;;;;;;;;;;;9.80;54.70;;;;;;6223559;23;20265;-90
2022/03/11 23:47:05;;;;;;;;;;;9.80;54.80;;;;;;6223771;23;20307;-89
2022/03/11 23:49:48;;;;;;;;;;;9.80;54.80;;;;;;6250141;23;19904;-89
2022/03/11 23:52:24;;;;;;;;;;;9.80;54.70;;;;;;6195552;23;19907;-89
2022/03/11 23:55:12;;;;;;;;;;;9.80;54.60;;;;;;6223547;23;19986;-89
2022/03/11 23:57:38;;;;;;;;;;;9.80;54.70;;;;;;6209050;23;19935;-88
